Time;durP1;ratioP1;P1;durP2;ratioP2;P2;SDS_P1;SDS_P2;PMS_P1;PMS_P2;Temp;Humidity;BMP_temperature;BMP_pressure;BME280_temperature;BME280_humidity;BME280_pressure;Samples;Min_cycle;Max_cycle;Signal;HPM_P1;HPM_P2
2023/03/31 00:00:11;;;;;;;3.10;2.00;;;;;;;13.71;58.70;99901.22;685612;28;1006;-81
2023/03/31 00:00:32;;;;;;;3.05;2.00;;;;;;;13.68;58.41;99884.63;688182;28;1402;-80
2023/03/31 00:00:56;;;;;;;3.00;2.00;;;;;;;13.69;58.61;99892.50;687868;28;1115;-80
2023/03/31 00:01:18;;;;;;;3.42;2.10;;;;;;;13.73;58.52;99901.22;685157;28;1172;-81
2023/03/31 00:01:41;;;;;;;4.88;2.22;;;;;;;13.77;58.45;99908.22;685610;28;1409;-80
2023/03/31 00:02:12;;;;;;;5.40;2.40;;;;;;;13.71;58.55;99903.84;685522;28;1159;-80
2023/03/31 00:02:35;;;;;;;5.47;2.30;;;;;;;13.77;58.84;99904.75;685099;28;1281;-80
2023/03/31 00:03:20;;;;;;;5.60;2.40;;;;;;;13.78;58.55;99906.47;685427;28;1144;-80
2023/03/31 00:03:42;;;;;;;4.35;2.15;;;;;;;13.78;58.44;99911.72;685449;28;1284;-80
2023/03/31 00:04:03;;;;;;;4.15;2.00;;;;;;;13.69;58.69;99897.72;688098;28;1253;-80
2023/03/31 00:04:24;;;;;;;3.70;2.00;;;;;;;13.72;58.92;99902.13;688197;28;1080;-80
2023/03/31 00:04:51;;;;;;;5.15;2.05;;;;;;;13.73;58.59;99902.97;685402;28;1465;-80
2023/03/31 00:05:16;;;;;;;5.15;2.13;;;;;;;13.65;58.72;99901.22;687519;28;1128;-80
2023/03/31 00:05:37;;;;;;;4.82;2.10;;;;;;;13.67;58.78;99902.09;688476;28;1247;-80
2023/03/31 00:05:59;;;;;;;5.55;2.20;;;;;;;13.63;58.81;99887.22;693617;28;1095;-80
2023/03/31 00:06:20;;;;;;;6.07;2.20;;;;;;;13.67;58.93;99894.25;685390;28;1429;-80
2023/03/31 00:06:41;;;;;;;4.18;2.05;;;;;;;13.73;58.64;99908.22;682765;28;1971;-82
2023/03/31 00:07:04;;;;;;;3.77;1.90;;;;;;;13.70;58.90;99903.84;685403;28;1306;-82
2023/03/31 00:07:25;;;;;;;4.63;1.98;;;;;;;13.68;58.63;99896.00;688252;28;1012;-83
2023/03/31 00:07:47;;;;;;;4.93;2.10;;;;;;;13.62;58.86;99887.22;682791;29;1253;-82
2023/03/31 00:08:12;;;;;;;5.97;2.30;;;;;;;13.69;58.93;99897.72;685707;28;1076;-82
2023/03/31 00:08:36;;;;;;;4.90;2.30;;;;;;;13.60;58.97;99887.25;685599;28;1130;-82
2023/03/31 00:09:00;;;;;;;5.78;2.20;;;;;;;13.74;58.77;99907.34;685500;28;1223;-83
2023/03/31 00:09:21;;;;;;;5.60;2.10;;;;;;;13.71;58.64;99910.84;685510;28;1217;-82
2023/03/31 00:09:44;;;;;;;6.00;2.03;;;;;;;13.62;58.73;99888.13;688194;28;1168;-80
2023/03/31 00:10:06;;;;;;;5.07;2.08;;;;;;;13.65;58.59;99900.34;685450;28;1376;-80
2023/03/31 00:10:32;;;;;;;5.57;2.17;;;;;;;13.69;58.85;99907.34;685708;28;1278;-80
2023/03/31 00:10:53;;;;;;;4.65;2.05;;;;;;;13.61;58.66;99891.63;682621;29;1945;-80
2023/03/31 00:11:13;;;;;;;4.80;2.03;;;;;;;13.62;58.66;99892.47;688139;28;1301;-80
2023/03/31 00:11:34;;;;;;;3.78;1.75;;;;;;;13.96;58.35;99890.75;688291;28;772;-81
2023/03/31 00:11:55;;;;;;;3.40;1.90;;;;;;;14.14;57.64;99899.53;690716;28;1175;-80
2023/03/31 00:12:16;;;;;;;3.67;2.00;;;;;;;14.20;57.23;99898.66;690776;28;1143;-80
2023/03/31 00:12:36;;;;;;;4.93;2.27;;;;;;;14.29;57.18;99903.00;688268;28;827;-80
2023/03/31 00:12:57;;;;;;;4.80;2.20;;;;;;;14.32;56.95;99897.75;687970;28;1199;-80
2023/03/31 00:13:17;;;;;;;6.18;2.20;;;;;;;14.30;56.90;99896.88;682906;28;1193;-81
2023/03/31 00:13:38;;;;;;;5.30;2.00;;;;;;;14.30;56.63;99883.75;682966;29;1034;-80
2023/03/31 00:13:59;;;;;;;6.05;1.90;;;;;;;14.27;56.61;99879.41;682779;29;1197;-80
2023/03/31 00:14:20;;;;;;;4.57;1.90;;;;;;;14.34;56.67;99896.00;685420;28;1090;-80
2023/03/31 00:14:42;;;;;;;5.68;2.03;;;;;;;14.29;56.76;99882.00;688184;28;1184;-79
2023/03/31 00:15:03;;;;;;;5.30;2.20;;;;;;;14.40;56.47;99901.25;688186;28;1160;-81
2023/03/31 00:15:23;;;;;;;4.28;2.00;;;;;;;14.31;56.68;99883.75;685518;28;1018;-80
2023/03/31 00:15:45;;;;;;;3.72;2.00;;;;;;;14.38;56.53;99892.50;688098;28;1281;-80
2023/03/31 00:16:08;;;;;;;3.60;1.80;;;;;;;14.29;56.57;99871.50;688210;28;1188;-81
2023/03/31 00:16:28;;;;;;;4.05;1.90;;;;;;;14.35;56.43;99876.75;685509;28;905;-80
2023/03/31 00:16:49;;;;;;;5.05;2.00;;;;;;;14.41;56.58;99903.00;687837;28;1205;-80
2023/03/31 00:17:10;;;;;;;6.17;2.20;;;;;;;14.38;56.46;99888.13;690992;28;1124;-80
2023/03/31 00:17:32;;;;;;;5.72;2.20;;;;;;;14.44;56.28;99887.22;688197;28;1428;-81
2023/03/31 00:17:52;;;;;;;6.00;2.20;;;;;;;14.48;56.17;99881.09;685410;28;1373;-80
2023/03/31 00:18:13;;;;;;;6.75;2.20;;;;;;;14.44;55.96;99881.13;688273;28;1164;-79
2023/03/31 00:18:34;;;;;;;6.47;2.20;;;;;;;14.43;56.31;99885.47;685399;28;1302;-81
2023/03/31 00:18:55;;;;;;;4.03;2.00;;;;;;;14.46;56.55;99890.75;688035;28;1361;-80
2023/03/31 00:19:18;;;;;;;4.35;2.10;;;;;;;14.45;56.00;99875.84;685577;28;1120;-80
2023/03/31 00:19:40;;;;;;;4.82;2.03;;;;;;;14.45;55.99;99883.72;685659;28;1097;-80
2023/03/31 00:20:04;;;;;;;6.68;2.50;;;;;;;14.46;56.23;99879.34;680072;29;1260;-80
2023/03/31 00:20:25;;;;;;;4.15;2.10;;;;;;;14.46;56.21;99893.38;682867;29;1144;-80
2023/03/31 00:20:45;;;;;;;4.40;2.20;;;;;;;14.42;55.97;99888.09;688007;28;1191;-80
2023/03/31 00:21:23;;;;;;;3.70;1.80;;;;;;;14.39;55.96;99878.50;690926;28;1264;-80
2023/03/31 00:21:46;;;;;;;4.25;1.80;;;;;;;14.41;56.22;99879.38;685472;28;1093;-80
2023/03/31 00:22:07;;;;;;;5.03;2.10;;;;;;;14.40;55.97;99885.50;682823;29;1501;-81
2023/03/31 00:22:28;;;;;;;5.88;2.20;;;;;;;14.41;56.18;99875.84;685551;28;1319;-81
2023/03/31 00:22:53;;;;;;;5.43;2.20;;;;;;;14.32;56.08;99876.75;690179;28;1362;-80
2023/03/31 00:23:13;;;;;;;4.45;2.00;;;;;;;14.35;56.03;99874.13;685288;28;1299;-80
2023/03/31 00:23:34;;;;;;;4.30;1.90;;;;;;;14.06;56.60;99886.38;685566;28;1234;-80
2023/03/31 00:23:57;;;;;;;4.53;2.15;;;;;;;13.92;57.25;99894.25;688030;28;1205;-80
2023/03/31 00:24:18;;;;;;;4.53;2.20;;;;;;;13.73;57.64;99874.13;685419;28;1273;-80
2023/03/31 00:24:38;;;;;;;5.53;2.40;;;;;;;13.67;57.93;99875.91;685463;28;1148;-80
2023/03/31 00:24:59;;;;;;;6.80;2.40;;;;;;;13.66;58.12;99879.34;688230;28;1079;-80
2023/03/31 00:25:20;;;;;;;6.85;2.47;;;;;;;13.53;58.34;99873.25;685477;28;1268;-80
2023/03/31 00:25:43;;;;;;;6.38;2.33;;;;;;;13.58;58.35;99878.47;685574;28;1232;-79
2023/03/31 00:26:03;;;;;;;5.53;2.20;;;;;;;13.52;58.49;99870.63;688190;28;1436;-81
2023/03/31 00:26:25;;;;;;;6.18;2.40;;;;;;;13.50;58.41;99877.59;688230;28;1337;-80
2023/03/31 00:26:45;;;;;;;8.25;2.70;;;;;;;13.43;58.68;99859.28;685132;28;1971;-80
2023/03/31 00:27:06;;;;;;;7.97;2.50;;;;;;;13.37;58.86;99856.63;682956;29;1290;-81
2023/03/31 00:27:27;;;;;;;7.30;2.27;;;;;;;13.41;58.72;99875.84;685092;28;1062;-80
2023/03/31 00:27:49;;;;;;;5.60;2.20;;;;;;;13.41;59.16;99871.47;685458;28;1092;-80
2023/03/31 00:28:10;;;;;;;5.82;2.40;;;;;;;13.42;58.82;99872.34;685685;28;1130;-81
2023/03/31 00:28:31;;;;;;;5.93;2.50;;;;;;;13.39;59.06;99878.47;688203;28;1042;-80
2023/03/31 00:28:52;;;;;;;4.95;2.33;;;;;;;13.35;58.88;99863.63;688114;28;1091;-80
2023/03/31 00:29:13;;;;;;;4.55;2.00;;;;;;;13.35;59.10;99862.72;685434;28;1096;-80
2023/03/31 00:29:34;;;;;;;3.73;2.00;;;;;;;13.34;59.27;99868.84;688296;28;1149;-81
2023/03/31 00:29:55;;;;;;;4.05;2.10;;;;;;;13.31;59.04;99867.09;688133;28;1249;-81
2023/03/31 00:30:16;;;;;;;4.40;2.30;;;;;;;13.32;59.29;99866.22;685390;28;1197;-80
2023/03/31 00:30:36;;;;;;;5.25;2.50;;;;;;;13.29;59.09;99868.84;685595;28;1293;-81
2023/03/31 00:31:01;;;;;;;5.63;2.20;;;;;;;13.25;59.22;99859.22;685321;28;1194;-82
2023/03/31 00:31:23;;;;;;;4.75;2.08;;;;;;;13.19;59.51;99854.84;685564;28;1055;-83
2023/03/31 00:31:44;;;;;;;4.75;1.90;;;;;;;13.23;59.62;99859.22;685399;28;1204;-82
2023/03/31 00:32:04;;;;;;;4.40;2.05;;;;;;;13.19;59.56;99859.19;690828;28;1175;-82
2023/03/31 00:32:25;;;;;;;4.33;2.10;;;;;;;13.26;59.64;99874.06;685673;28;1009;-82
2023/03/31 00:32:46;;;;;;;4.47;2.30;;;;;;;13.26;59.52;99872.31;685344;28;1572;-82
2023/03/31 00:33:07;;;;;;;4.78;2.40;;;;;;;13.25;59.42;99859.22;685415;28;1411;-82
2023/03/31 00:33:28;;;;;;;5.00;2.20;;;;;;;13.25;59.27;99860.09;685505;28;1135;-82
2023/03/31 00:33:49;;;;;;;4.65;2.17;;;;;;;13.24;59.63;99862.72;685545;28;1041;-82
2023/03/31 00:34:10;;;;;;;5.47;2.13;;;;;;;13.22;59.59;99862.69;682993;28;1157;-82
2023/03/31 00:34:31;;;;;;;5.50;2.30;;;;;;;13.19;59.65;99848.72;682877;29;1142;-83
2023/03/31 00:34:51;;;;;;;6.00;2.58;;;;;;;13.26;59.25;99855.72;685325;28;1217;-82
2023/03/31 00:35:12;;;;;;;5.22;2.60;;;;;;;13.25;59.34;99859.22;684619;28;1077;-82
2023/03/31 00:35:34;;;;;;;5.57;2.57;;;;;;;13.29;59.50;99858.34;685540;28;1146;-82
2023/03/31 00:35:55;;;;;;;4.93;2.22;;;;;;;13.20;59.53;99850.50;690648;28;1040;-82
2023/03/31 00:36:28;;;;;;;3.58;2.20;;;;;;;13.23;59.32;99856.59;688149;28;1098;-82
2023/03/31 00:36:49;;;;;;;4.10;2.20;;;;;;;13.24;59.64;99852.22;690556;28;1108;-82
2023/03/31 00:37:14;;;;;;;4.60;2.20;;;;;;;13.24;59.52;99849.59;688317;28;1065;-82
2023/03/31 00:37:35;;;;;;;4.28;2.20;;;;;;;13.30;59.37;99860.09;693516;28;1412;-82
2023/03/31 00:37:56;;;;;;;4.10;2.30;;;;;;;13.29;59.49;99858.34;690814;28;1096;-82
2023/03/31 00:38:20;;;;;;;3.92;2.15;;;;;;;13.25;59.33;99848.72;685313;28;1407;-82
2023/03/31 00:38:44;;;;;;;4.25;2.30;;;;;;;13.25;59.52;99841.75;682670;29;1489;-82
2023/03/31 00:39:08;;;;;;;5.07;2.30;;;;;;;13.24;59.37;99841.75;680223;29;1270;-82
2023/03/31 00:39:33;;;;;;;3.78;2.00;;;;;;;13.24;59.48;99847.00;682819;29;999;-83
2023/03/31 00:39:54;;;;;;;3.78;2.00;;;;;;;13.29;59.32;99856.59;682663;29;1003;-82
2023/03/31 00:40:15;;;;;;;5.28;2.38;;;;;;;13.26;59.54;99845.22;685523;28;1097;-82
2023/03/31 00:40:35;;;;;;;5.68;2.50;;;;;;;13.21;59.26;99839.13;688211;28;808;-80
2023/03/31 00:40:56;;;;;;;5.07;2.38;;;;;;;13.25;59.44;99840.88;685359;28;1196;-82
2023/03/31 00:41:17;;;;;;;5.18;2.50;;;;;;;13.18;59.39;99836.47;688021;28;1334;-82
2023/03/31 00:41:38;;;;;;;5.27;2.47;;;;;;;13.26;59.21;99848.75;682920;29;868;-83
2023/03/31 00:42:01;;;;;;;4.70;2.50;;;;;;;13.24;59.66;99841.75;685451;28;1158;-83
2023/03/31 00:42:22;;;;;;;3.03;1.98;;;;;;;13.15;59.41;99833.00;685584;28;1014;-81
2023/03/31 00:42:45;;;;;;;2.83;2.03;;;;;;;13.28;59.66;99846.13;685636;28;1145;-82
2023/03/31 00:43:28;;;;;;;2.70;1.95;;;;;;;13.22;59.75;99838.25;685450;28;1331;-82
2023/03/31 00:44:01;;;;;;;4.82;2.00;;;;;;;13.32;59.69;99845.25;682693;29;1142;-82
2023/03/31 00:44:26;;;;;;;7.93;2.30;;;;;;;13.26;59.49;99840.00;683057;28;1085;-80
2023/03/31 00:45:17;;;;;;;6.32;2.30;;;;;;;13.31;59.25;99848.75;685474;28;1085;-80
2023/03/31 00:45:38;;;;;;;5.50;2.30;;;;;;;13.26;59.52;99835.66;688257;28;937;-82
2023/03/31 00:46:18;;;;;;;5.50;2.20;;;;;;;13.22;59.29;99833.88;685539;28;1089;-82
2023/03/31 00:46:49;;;;;;;4.60;2.10;;;;;;;13.29;59.36;99838.25;685367;28;1912;-82
2023/03/31 00:47:18;;;;;;;5.53;2.60;;;;;;;13.23;59.28;99834.75;682823;29;1374;-82
2023/03/31 00:47:51;;;;;;;5.05;2.40;;;;;;;13.27;59.37;99841.78;685451;28;1056;-82
2023/03/31 00:48:17;;;;;;;4.45;2.17;;;;;;;13.28;59.11;99841.75;680099;29;1242;-82
2023/03/31 00:48:47;;;;;;;5.43;2.40;;;;;;;13.26;59.70;99834.75;682816;29;1247;-82
2023/03/31 00:49:19;;;;;;;6.07;2.42;;;;;;;13.23;59.28;99838.28;682734;29;1114;-82
2023/03/31 00:49:44;;;;;;;6.00;2.25;;;;;;;13.14;59.48;99820.78;685284;28;1292;-82
2023/03/31 00:50:19;;;;;;;4.38;1.95;;;;;;;13.11;59.30;99823.41;685570;28;1232;-83
2023/03/31 00:50:53;;;;;;;3.33;1.90;;;;;;;13.22;59.45;99838.25;685469;28;1204;-82
2023/03/31 00:51:14;;;;;;;3.47;2.10;;;;;;;13.15;59.50;99824.28;685509;28;1231;-82
2023/03/31 00:51:35;;;;;;;3.25;1.98;;;;;;;13.16;59.51;99820.78;685548;28;1367;-82
2023/03/31 00:52:01;;;;;;;3.90;2.20;;;;;;;13.23;59.23;99840.00;685292;28;1245;-82
2023/03/31 00:52:26;;;;;;;5.05;2.53;;;;;;;13.15;59.49;99821.66;685581;28;1152;-83
2023/03/31 00:52:53;;;;;;;6.13;2.50;;;;;;;13.15;59.32;99816.44;690687;28;1025;-83
2023/03/31 00:53:18;;;;;;;5.90;1.95;;;;;;;13.13;59.19;99812.91;688131;28;1166;-82
2023/03/31 00:53:39;;;;;;;4.65;1.60;;;;;;;13.18;59.53;99820.78;688143;28;1214;-82
2023/03/31 00:54:07;;;;;;;4.60;1.73;;;;;;;13.20;59.34;99835.63;685480;28;1585;-82
2023/03/31 00:54:31;;;;;;;3.78;1.92;;;;;;;13.15;59.70;99825.13;682802;28;1224;-82
2023/03/31 00:55:01;;;;;;;5.10;2.20;;;;;;;13.11;59.31;99815.53;688174;28;1101;-82
2023/03/31 00:55:29;;;;;;;5.88;2.20;;;;;;;13.06;59.66;99817.28;685830;28;1057;-82
2023/03/31 00:55:54;;;;;;;5.38;2.13;;;;;;;13.05;59.76;99812.91;685382;28;1978;-82
2023/03/31 00:56:16;;;;;;;4.90;2.00;;;;;;;13.09;59.72;99817.25;686252;28;1120;-82
2023/03/31 00:56:40;;;;;;;4.05;1.88;;;;;;;13.24;59.83;99831.28;685594;28;900;-82
2023/03/31 00:57:05;;;;;;;5.20;2.05;;;;;;;13.18;59.54;99818.16;687854;28;855;-82
2023/03/31 00:57:27;;;;;;;4.68;2.10;;;;;;;13.16;59.57;99826.88;687993;28;1115;-82
2023/03/31 00:57:52;;;;;;;4.53;2.10;;;;;;;13.22;59.48;99833.03;682655;29;1307;-82
2023/03/31 00:58:18;;;;;;;5.07;2.20;;;;;;;13.23;59.38;99824.28;682831;29;1128;-82
2023/03/31 00:58:44;;;;;;;5.13;2.28;;;;;;;13.16;59.40;99819.03;685297;28;1273;-82
2023/03/31 00:59:09;;;;;;;5.72;2.10;;;;;;;13.11;59.81;99825.13;688081;28;1323;-83
2023/03/31 00:59:33;;;;;;;5.32;2.00;;;;;;;13.00;59.54;99812.00;685453;28;1277;-80
2023/03/31 01:00:02;;;;;;;5.28;2.20;;;;;;;13.09;59.74;99822.50;687973;28;1241;-81
2023/03/31 01:00:23;;;;;;;5.07;2.30;;;;;;;12.98;59.97;99808.53;690800;28;1241;-82
2023/03/31 01:00:46;;;;;;;3.97;2.00;;;;;;;13.04;59.60;99818.13;688093;28;1185;-82
2023/03/31 01:01:07;;;;;;;4.18;2.00;;;;;;;13.00;59.98;99812.91;688096;28;1256;-82
2023/03/31 01:01:29;;;;;;;4.40;1.80;;;;;;;13.04;59.78;99816.41;688199;28;1070;-83
2023/03/31 01:01:49;;;;;;;3.60;1.70;;;;;;;13.04;59.77;99816.41;690682;28;1245;-83
2023/03/31 01:02:13;;;;;;;4.43;1.80;;;;;;;12.92;59.90;99792.75;688218;28;996;-83
2023/03/31 01:02:40;;;;;;;4.60;1.90;;;;;;;13.00;60.14;99812.00;688341;28;893;-83
2023/03/31 01:03:06;;;;;;;5.80;2.10;;;;;;;13.01;59.81;99816.38;685506;28;1270;-83
2023/03/31 01:03:29;;;;;;;5.32;2.03;;;;;;;12.96;60.15;99810.28;685720;28;1114;-82
2023/03/31 01:03:58;;;;;;;4.78;2.00;;;;;;;12.93;59.99;99799.72;682787;29;1278;-82
2023/03/31 01:04:21;;;;;;;3.85;2.00;;;;;;;12.92;60.29;99798.00;685533;28;1193;-82
2023/03/31 01:04:49;;;;;;;3.28;1.92;;;;;;;12.96;60.00;99799.78;682756;29;1098;-82
2023/03/31 01:05:09;;;;;;;3.67;2.03;;;;;;;12.96;60.11;99805.03;682931;29;994;-80
2023/03/31 01:05:46;;;;;;;4.80;2.10;;;;;;;12.98;60.10;99800.66;682879;29;1082;-80
2023/03/31 01:06:09;;;;;;;4.80;2.10;;;;;;;12.97;59.99;99805.00;685406;28;1098;-80
2023/03/31 01:06:29;;;;;;;4.10;1.98;;;;;;;12.98;59.97;99798.91;688151;28;1111;-80
2023/03/31 01:06:59;;;;;;;3.80;1.90;;;;;;;13.00;60.25;99799.81;685058;28;1895;-80
2023/03/31 01:07:29;;;;;;;4.43;1.80;;;;;;;12.96;60.08;99794.56;685515;28;1225;-82
2023/03/31 01:08:15;;;;;;;4.40;1.88;;;;;;;13.03;59.78;99798.91;682821;29;1263;-82
2023/03/31 01:08:37;;;;;;;5.15;2.13;;;;;;;13.04;60.17;99803.31;684610;29;1101;-81
2023/03/31 01:08:59;;;;;;;5.07;2.25;;;;;;;12.97;60.02;99786.69;687420;28;1384;-82
2023/03/31 01:09:21;;;;;;;5.32;2.40;;;;;;;12.97;59.76;99793.69;687373;28;1105;-80
2023/03/31 01:09:46;;;;;;;5.18;2.33;;;;;;;13.02;59.84;99794.53;687500;28;1158;-80
2023/03/31 01:10:09;;;;;;;4.53;2.08;;;;;;;12.90;59.83;99774.41;689965;28;1070;-80
2023/03/31 01:10:40;;;;;;;4.57;2.00;;;;;;;13.00;59.78;99788.44;684731;28;1098;-79
2023/03/31 01:11:05;;;;;;;6.07;2.00;;;;;;;13.04;59.69;99791.94;687424;28;1119;-79
2023/03/31 01:11:29;;;;;;;5.35;2.00;;;;;;;12.98;59.60;99785.81;684964;29;1284;-80
2023/03/31 01:11:50;;;;;;;5.00;2.10;;;;;;;12.95;59.79;99788.44;683458;28;1116;-80
2023/03/31 01:12:10;;;;;;;4.10;2.10;;;;;;;12.95;59.53;99784.91;685715;28;1142;-80
2023/03/31 01:12:33;;;;;;;4.03;2.00;;;;;;;13.00;59.88;99785.81;691173;28;1089;-80
2023/03/31 01:12:54;;;;;;;4.93;2.10;;;;;;;13.02;59.91;99787.56;683214;29;1267;-80
2023/03/31 01:13:16;;;;;;;5.45;2.20;;;;;;;13.00;59.84;99788.44;685885;28;1295;-80
2023/03/31 01:13:40;;;;;;;5.40;2.25;;;;;;;12.99;59.90;99781.47;683178;29;1268;-80
2023/03/31 01:14:03;;;;;;;4.03;2.05;;;;;;;12.92;59.85;99774.41;685842;28;1263;-80
2023/03/31 01:14:26;;;;;;;3.92;2.20;;;;;;;12.98;59.53;99787.56;683362;28;1291;-82
2023/03/31 01:14:49;;;;;;;5.05;2.20;;;;;;;13.05;59.90;99796.31;685788;28;1207;-82
2023/03/31 01:15:10;;;;;;;4.85;2.00;;;;;;;12.97;59.46;99780.59;688702;28;1208;-82
2023/03/31 01:15:31;;;;;;;4.60;2.00;;;;;;;12.99;60.06;99786.69;688863;28;994;-82
2023/03/31 01:15:52;;;;;;;4.03;2.00;;;;;;;12.99;59.56;99790.19;685841;28;1138;-82
2023/03/31 01:16:13;;;;;;;3.33;2.00;;;;;;;13.03;59.55;99788.44;688498;28;1090;-82
2023/03/31 01:16:34;;;;;;;3.55;1.90;;;;;;;13.03;59.89;99796.28;688579;28;1420;-82
2023/03/31 01:16:54;;;;;;;3.73;1.80;;;;;;;13.00;59.89;99796.28;682921;29;1002;-82
2023/03/31 01:17:18;;;;;;;3.63;1.80;;;;;;;12.93;59.76;99784.03;685819;28;1330;-82
2023/03/31 01:17:43;;;;;;;3.28;1.77;;;;;;;12.97;59.64;99788.44;683268;28;1393;-82
2023/03/31 01:18:05;;;;;;;3.50;1.80;;;;;;;12.96;59.80;99787.56;683297;29;1233;-82
2023/03/31 01:18:27;;;;;;;4.45;2.00;;;;;;;13.02;59.71;99800.66;685878;28;1371;-82
2023/03/31 01:18:49;;;;;;;4.25;2.00;;;;;;;12.93;59.87;99784.03;685803;28;1220;-82
2023/03/31 01:19:32;;;;;;;4.32;2.25;;;;;;;12.91;59.67;99776.16;686080;28;1108;-82
2023/03/31 01:19:55;;;;;;;4.50;2.30;;;;;;;12.95;59.87;99787.53;685838;28;1269;-82
2023/03/31 01:20:48;;;;;;;4.50;2.20;;;;;;;12.82;60.09;99777.03;685804;28;1144;-82
2023/03/31 01:21:13;;;;;;;3.47;1.90;;;;;;;12.92;60.15;99788.41;677835;29;1286;-82
2023/03/31 01:21:58;;;;;;;4.35;1.90;;;;;;;12.79;60.35;99776.13;675349;29;1294;-82
2023/03/31 01:23:01;;;;;;;5.00;2.17;;;;;;;12.89;60.27;99775.28;685793;28;1268;-82
2023/03/31 01:23:46;;;;;;;4.22;1.90;;;;;;;12.88;60.37;99778.78;688734;28;1222;-83
2023/03/31 01:24:34;;;;;;;4.53;2.33;;;;;;;12.96;59.95;99782.31;687759;28;944;-82
2023/03/31 01:25:04;;;;;;;3.63;2.00;;;;;;;12.93;59.90;99779.72;688387;28;997;-82
2023/03/31 01:25:37;;;;;;;4.28;1.90;;;;;;;12.93;60.21;99776.16;688610;28;1253;-82
2023/03/31 01:26:37;;;;;;;5.32;2.38;;;;;;;12.93;60.37;99782.31;688494;28;1034;-82
2023/03/31 01:27:00;;;;;;;4.85;2.53;;;;;;;12.94;60.04;99776.22;682682;28;1421;-82
2023/03/31 01:27:52;;;;;;;4.93;2.30;;;;;;;12.92;60.15;99777.03;680630;29;1111;-82
2023/03/31 01:28:25;;;;;;;5.47;1.90;;;;;;;12.94;60.28;99777.94;675145;29;1563;-82
2023/03/31 01:29:17;;;;;;;5.18;2.10;;;;;;;12.95;60.21;99777.06;689489;28;1123;-82
2023/03/31 01:29:50;;;;;;;4.45;2.10;;;;;;;12.97;60.04;99777.97;685902;28;1052;-82
2023/03/31 01:30:42;;;;;;;4.05;2.00;;;;;;;12.92;59.90;99766.56;688133;28;1101;-82
2023/03/31 01:31:32;;;;;;;5.95;2.20;;;;;;;13.01;60.27;99777.97;688518;28;1293;-82
2023/03/31 01:32:26;;;;;;;6.38;2.00;;;;;;;13.02;59.85;99773.59;685636;28;1220;-82
2023/03/31 01:32:49;;;;;;;2.50;1.90;;;;;;;13.04;60.03;99771.00;683156;29;1233;-82
2023/03/31 01:33:50;;;;;;;4.18;1.90;;;;;;;13.04;59.71;99766.63;683374;28;1245;-82
2023/03/31 01:34:38;;;;;;;5.35;2.40;;;;;;;13.11;59.66;99767.50;682299;29;1443;-83
2023/03/31 01:35:34;;;;;;;3.72;2.10;;;;;;;13.13;59.55;99771.00;687184;28;860;-82
2023/03/31 01:36:20;;;;;;;4.65;2.08;;;;;;;13.13;59.82;99765.75;684713;28;2048;-82
2023/03/31 01:36:49;;;;;;;4.60;2.05;;;;;;;13.15;59.53;99764.91;688607;28;1156;-82
2023/03/31 01:37:47;;;;;;;5.43;2.17;;;;;;;13.14;59.74;99772.75;685920;28;1289;-82
2023/03/31 01:38:36;;;;;;;3.90;2.10;;;;;;;13.15;59.75;99764.03;685823;28;1364;-82
2023/03/31 01:39:36;;;;;;;3.78;2.00;;;;;;;13.11;59.57;99757.03;687206;28;1034;-82
2023/03/31 01:40:25;;;;;;;5.35;2.40;;;;;;;13.20;59.43;99756.19;693439;28;1284;-82
2023/03/31 01:40:51;;;;;;;3.63;2.08;;;;;;;13.24;59.28;99765.78;691246;28;1018;-82
2023/03/31 01:41:33;;;;;;;3.95;2.40;;;;;;;13.25;59.50;99763.16;691313;28;1112;-82
2023/03/31 01:42:08;;;;;;;5.53;2.38;;;;;;;13.26;59.50;99761.41;686909;28;1254;-82
2023/03/31 01:42:38;;;;;;;4.43;2.00;;;;;;;13.26;59.30;99758.78;686206;28;1263;-82
2023/03/31 01:43:11;;;;;;;4.38;2.40;;;;;;;13.33;58.99;99763.16;685807;28;1199;-82
2023/03/31 01:43:36;;;;;;;5.65;2.60;;;;;;;13.33;58.86;99762.31;682518;29;1461;-82
2023/03/31 01:44:27;;;;;;;5.43;2.28;;;;;;;13.32;59.16;99752.69;683251;29;1163;-82
2023/03/31 01:45:00;;;;;;;5.68;2.15;;;;;;;13.35;58.79;99761.44;685941;28;1348;-83
2023/03/31 01:45:27;;;;;;;7.53;2.10;;;;;;;13.34;58.76;99754.41;684107;28;1094;-82
2023/03/31 01:45:59;;;;;;;6.05;2.00;;;;;;;13.37;58.79;99761.41;685895;28;1213;-83
2023/03/31 01:46:42;;;;;;;6.53;2.00;;;;;;;13.27;58.75;99736.97;687577;28;1236;-82
2023/03/31 01:47:12;;;;;;;8.02;2.20;;;;;;;13.38;58.65;99750.94;685770;28;1382;-82
2023/03/31 01:47:40;;;;;;;7.03;2.17;;;;;;;13.30;58.85;99748.28;685880;28;1347;-82
2023/03/31 01:48:05;;;;;;;6.43;2.10;;;;;;;13.29;58.76;99743.09;683250;28;1388;-82
2023/03/31 01:48:46;;;;;;;5.90;2.20;;;;;;;13.43;58.56;99754.44;688619;28;1070;-82
2023/03/31 01:49:31;;;;;;;6.10;2.10;;;;;;;13.37;58.39;99738.72;688603;28;1181;-82
2023/03/31 01:50:03;;;;;;;3.70;1.80;;;;;;;13.41;58.36;99737.81;685739;28;1388;-82
2023/03/31 01:50:28;;;;;;;3.80;1.90;;;;;;;13.49;58.49;99742.19;688661;28;950;-83
2023/03/31 01:50:58;;;;;;;4.60;2.00;;;;;;;13.43;58.41;99736.09;685711;28;1440;-82
2023/03/31 01:51:34;;;;;;;6.40;2.40;;;;;;;13.47;58.09;99733.47;688435;28;1193;-82
2023/03/31 01:52:22;;;;;;;5.55;2.40;;;;;;;13.46;58.17;99743.06;685748;28;1103;-83
2023/03/31 01:52:55;;;;;;;4.80;2.30;;;;;;;13.51;58.28;99740.47;689482;28;1084;-81
2023/03/31 01:53:26;;;;;;;6.10;2.25;;;;;;;13.54;58.20;99741.31;688547;28;1084;-82
2023/03/31 01:54:01;;;;;;;6.15;2.38;;;;;;;13.62;58.08;99754.41;687199;28;1118;-82
2023/03/31 01:54:51;;;;;;;5.40;2.15;;;;;;;13.60;57.83;99729.06;683088;29;891;-82
2023/03/31 01:55:23;;;;;;;4.20;2.00;;;;;;;13.55;57.79;99724.72;685798;28;1078;-83
2023/03/31 01:55:50;;;;;;;4.28;2.10;;;;;;;13.66;57.83;99750.91;683081;29;1208;-82
2023/03/31 01:56:29;;;;;;;4.28;1.83;;;;;;;13.56;57.63;99734.34;683280;29;1161;-82
2023/03/31 01:56:58;;;;;;;4.13;1.88;;;;;;;13.63;57.57;99727.31;685500;28;1103;-82
2023/03/31 01:57:27;;;;;;;3.85;1.70;;;;;;;13.60;57.78;99740.44;688595;28;2026;-82
2023/03/31 01:57:57;;;;;;;4.97;1.90;;;;;;;13.54;57.75;99735.22;685853;28;997;-83
2023/03/31 01:58:25;;;;;;;4.95;2.30;;;;;;;13.65;57.68;99738.69;685830;28;1140;-82
2023/03/31 01:59:07;;;;;;;5.05;2.30;;;;;;;13.64;57.74;99729.06;688291;28;1052;-82
2023/03/31 02:00:07;;;;;;;5.68;2.30;;;;;;;13.66;57.56;99724.69;683088;29;1559;-82
2023/03/31 02:00:40;;;;;;;3.67;1.67;;;;;;;13.65;57.57;99722.09;678376;29;1298;-82
2023/03/31 02:01:08;;;;;;;3.00;1.83;;;;;;;13.69;57.73;99714.22;680445;29;1265;-82
2023/03/31 02:02:00;;;;;;;3.78;1.83;;;;;;;13.77;57.56;99716.81;682921;28;1138;-82
2023/03/31 02:02:28;;;;;;;3.63;2.00;;;;;;;13.71;57.76;99706.34;684236;28;1209;-82
2023/03/31 02:02:58;;;;;;;4.57;2.30;;;;;;;13.71;57.74;99717.69;688248;28;1447;-82
2023/03/31 02:03:24;;;;;;;4.25;2.10;;;;;;;13.60;57.49;99701.13;689677;28;2004;-82
2023/03/31 02:04:00;;;;;;;4.82;1.95;;;;;;;13.56;58.19;99707.25;682961;29;1365;-82
2023/03/31 02:04:57;;;;;;;4.53;2.08;;;;;;;13.46;59.20;99695.03;683063;28;1172;-82
2023/03/31 02:05:25;;;;;;;5.85;2.20;;;;;;;13.41;59.45;99703.75;675155;29;1427;-81
2023/03/31 02:05:54;;;;;;;3.83;2.05;;;;;;;13.32;59.87;99688.03;677896;29;1119;-82
2023/03/31 02:06:21;;;;;;;4.50;1.88;;;;;;;13.34;60.05;99707.25;675539;29;1183;-82
2023/03/31 02:06:51;;;;;;;5.15;1.80;;;;;;;13.35;60.19;99708.13;683172;28;1907;-83
2023/03/31 02:07:17;;;;;;;5.00;1.92;;;;;;;13.29;60.50;99709.03;685838;28;980;-82
2023/03/31 02:07:44;;;;;;;5.30;2.30;;;;;;;13.28;60.31;99708.13;685551;28;1300;-83
2023/03/31 02:08:15;;;;;;;6.28;2.30;;;;;;;13.24;60.60;99706.41;683129;29;1135;-83
2023/03/31 02:08:59;;;;;;;5.50;2.10;;;;;;;13.23;60.78;99693.28;685887;28;784;-82
2023/03/31 02:09:26;;;;;;;5.65;2.40;;;;;;;13.19;60.83;99691.53;685717;28;1335;-82
2023/03/31 02:09:55;;;;;;;6.38;2.40;;;;;;;13.16;61.26;99693.28;685751;28;1127;-82
2023/03/31 02:10:18;;;;;;;6.93;2.50;;;;;;;13.09;61.31;99674.97;685747;28;1066;-82
2023/03/31 02:10:42;;;;;;;7.18;2.60;;;;;;;13.12;61.64;99691.56;688667;28;1195;-82
2023/03/31 02:11:03;;;;;;;5.93;2.38;;;;;;;13.16;61.64;99695.06;691106;28;1249;-83
2023/03/31 02:11:25;;;;;;;5.97;2.53;;;;;;;13.09;61.42;99688.91;685739;28;1168;-82
2023/03/31 02:11:47;;;;;;;5.60;2.42;;;;;;;13.09;61.72;99685.44;685572;28;1105;-82
2023/03/31 02:12:11;;;;;;;6.05;2.40;;;;;;;13.26;61.52;99693.28;688664;28;1116;-82
2023/03/31 02:12:33;;;;;;;5.45;2.35;;;;;;;13.34;61.31;99688.91;688386;28;1461;-82
2023/03/31 02:12:55;;;;;;;4.60;2.20;;;;;;;13.49;61.05;99710.75;688327;28;1261;-83
2023/03/31 02:13:17;;;;;;;6.68;2.30;;;;;;;13.49;60.90;99701.16;685805;28;1287;-83